createdAt,value
2023-02-27T00:01:40.205Z,0.30
2023-02-27T00:04:07.504Z,0.43
2023-02-27T00:06:37.012Z,0.57
2023-02-27T00:09:05.424Z,0.30
2023-02-27T00:11:36.519Z,0.40
2023-02-27T00:14:13.857Z,0.30
2023-02-27T00:16:43.005Z,0.40
2023-02-27T00:19:11.475Z,0.47
2023-02-27T00:21:41.766Z,0.35
2023-02-27T00:27:03.576Z,0.37
2023-02-27T00:29:33.808Z,0.30
2023-02-27T00:32:02.053Z,0.30
2023-02-27T00:34:32.730Z,0.50
2023-02-27T00:37:03.680Z,0.40
2023-02-27T00:39:31.754Z,0.40
2023-02-27T00:42:10.356Z,0.40
2023-02-27T00:44:39.132Z,0.47
2023-02-27T00:47:07.633Z,0.40
2023-02-27T00:49:35.424Z,0.50
2023-02-27T00:52:07.901Z,0.50
2023-02-27T00:54:40.053Z,0.40
2023-02-27T00:57:07.512Z,0.43
2023-02-27T00:59:34.744Z,0.60
2023-02-27T01:02:02.251Z,0.40
2023-02-27T01:04:31.350Z,0.47
2023-02-27T01:07:01.640Z,0.40
2023-02-27T01:09:28.893Z,0.43
2023-02-27T01:11:57.768Z,0.50
2023-02-27T01:14:28.431Z,0.75
2023-02-27T01:17:09.184Z,0.60
2023-02-27T01:19:57.459Z,0.47
2023-02-27T01:22:29.058Z,0.60
2023-02-27T01:24:56.299Z,0.60
2023-02-27T01:27:23.340Z,0.70
2023-02-27T01:29:50.628Z,0.70
2023-02-27T01:32:18.204Z,0.55
2023-02-27T01:34:45.774Z,0.80
2023-02-27T01:37:16.419Z,0.90
2023-02-27T01:39:43.745Z,0.70
2023-02-27T01:42:25.394Z,0.80
2023-02-27T01:45:11.039Z,0.57
2023-02-27T01:47:56.611Z,0.80
2023-02-27T01:50:24.928Z,0.60
2023-02-27T01:53:02.946Z,0.70
2023-02-27T01:55:35.052Z,0.97
2023-02-27T01:58:10.556Z,0.90
2023-02-27T02:00:48.697Z,1.17
2023-02-27T02:03:31.426Z,0.55
2023-02-27T02:06:19.766Z,0.95
2023-02-27T02:08:50.147Z,0.60
2023-02-27T02:11:26.350Z,1.27
2023-02-27T02:14:02.916Z,0.80
2023-02-27T02:16:58.461Z,1.23
2023-02-27T02:19:57.515Z,1.50
2023-02-27T02:23:02.768Z,1.10
2023-02-27T02:26:12.786Z,0.98
2023-02-27T02:28:53.538Z,0.95
2023-02-27T02:31:48.939Z,0.88
2023-02-27T02:34:22.891Z,0.52
2023-02-27T02:37:24.766Z,0.80
2023-02-27T02:40:09.531Z,1.08
2023-02-27T02:42:56.035Z,1.23
2023-02-27T02:45:42.960Z,0.80
2023-02-27T02:48:37.655Z,0.88
2023-02-27T02:51:31.622Z,0.97
2023-02-27T02:54:26.141Z,0.90
2023-02-27T02:57:10.424Z,0.98
2023-02-27T02:59:44.923Z,0.90
2023-02-27T03:02:17.261Z,1.00
2023-02-27T03:04:49.565Z,0.97
2023-02-27T03:07:21.636Z,1.33
2023-02-27T03:09:55.845Z,0.82
2023-02-27T03:12:25.221Z,0.73
2023-02-27T03:15:05.085Z,0.90
2023-02-27T03:17:55.910Z,1.03
2023-02-27T03:20:29.668Z,0.90
2023-02-27T03:23:00.295Z,1.20
2023-02-27T03:25:28.863Z,1.23
2023-02-27T03:28:01.298Z,1.23
2023-02-27T03:30:39.573Z,1.10
2023-02-27T03:33:12.600Z,1.48
2023-02-27T03:36:06.280Z,1.45
2023-02-27T03:38:49.327Z,1.15
2023-02-27T03:41:36.191Z,1.17
2023-02-27T03:44:29.445Z,1.47
2023-02-27T03:46:58.501Z,1.10
2023-02-27T03:49:31.598Z,1.15
2023-02-27T03:54:52.215Z,1.27
2023-02-27T03:57:22.113Z,1.30
2023-02-27T03:59:50.189Z,1.20
2023-02-27T04:02:22.743Z,1.00
2023-02-27T04:04:50.371Z,1.17
2023-02-27T04:07:55.877Z,1.70
2023-02-27T04:10:50.650Z,1.17
2023-02-27T04:13:52.387Z,1.20
2023-02-27T04:19:53.837Z,1.33
2023-02-27T04:22:38.991Z,1.17
2023-02-27T04:25:40.316Z,1.10
2023-02-27T04:28:16.586Z,1.13
2023-02-27T04:30:56.221Z,1.67
2023-02-27T04:33:58.249Z,0.90
2023-02-27T04:36:35.623Z,1.10
2023-02-27T04:39:18.086Z,1.27
2023-02-27T04:41:58.768Z,1.15
2023-02-27T04:44:27.388Z,1.60
2023-02-27T04:46:57.031Z,1.13
2023-02-27T04:49:28.707Z,1.10
2023-02-27T04:51:58.398Z,0.90
2023-02-27T04:54:32.986Z,1.42
2023-02-27T04:57:06.482Z,1.25
2023-02-27T04:59:41.984Z,1.20
2023-02-27T05:02:46.936Z,1.20
2023-02-27T05:05:25.316Z,1.03
2023-02-27T05:08:05.973Z,1.30
2023-02-27T05:10:38.955Z,1.75
2023-02-27T05:13:38.580Z,1.00
2023-02-27T05:16:33.322Z,1.50
2023-02-27T05:21:56.653Z,0.95
2023-02-27T05:24:35.281Z,1.23
2023-02-27T05:27:29.843Z,1.20
2023-02-27T05:30:01.927Z,1.30
2023-02-27T05:32:33.985Z,1.20
2023-02-27T05:35:09.852Z,1.23
2023-02-27T05:37:44.061Z,1.10
2023-02-27T05:40:15.577Z,1.20
2023-02-27T05:42:47.424Z,1.00
2023-02-27T05:45:20.135Z,0.97
2023-02-27T05:47:54.942Z,1.20
2023-02-27T05:50:26.519Z,1.35
2023-02-27T05:52:57.589Z,1.20
2023-02-27T05:55:31.094Z,1.45
2023-02-27T05:58:21.110Z,1.77
2023-02-27T06:00:53.243Z,1.02
2023-02-27T06:03:31.326Z,1.80
2023-02-27T06:06:00.617Z,1.45
2023-02-27T06:08:28.134Z,1.20
2023-02-27T06:10:55.449Z,1.47
2023-02-27T06:13:23.314Z,1.70
2023-02-27T06:15:50.577Z,1.45
2023-02-27T06:18:17.815Z,1.33
2023-02-27T06:20:45.693Z,1.15
2023-02-27T06:23:12.819Z,1.30
2023-02-27T06:25:40.012Z,1.58
2023-02-27T06:28:06.670Z,2.13
2023-02-27T06:30:36.159Z,1.70
2023-02-27T06:33:04.179Z,1.35
2023-02-27T06:35:31.398Z,1.23
2023-02-27T06:37:58.392Z,2.03
2023-02-27T06:40:25.531Z,1.90
2023-02-27T06:42:55.153Z,1.27
2023-02-27T06:45:25.199Z,2.15
2023-02-27T06:47:52.024Z,1.10
2023-02-27T06:50:19.098Z,1.38
2023-02-27T06:52:45.932Z,1.77
2023-02-27T06:55:12.765Z,1.20
2023-02-27T06:57:39.650Z,1.67
2023-02-27T07:00:07.230Z,1.60
2023-02-27T07:02:34.389Z,1.50
2023-02-27T07:05:05.290Z,1.60
2023-02-27T07:07:37.739Z,1.30
2023-02-27T07:10:07.154Z,1.92
2023-02-27T07:12:36.898Z,1.40
2023-02-27T07:15:05.217Z,1.58
2023-02-27T07:17:35.670Z,1.42
2023-02-27T07:20:02.576Z,1.70
2023-02-27T07:22:29.352Z,1.58
2023-02-27T07:24:56.131Z,1.60
2023-02-27T07:27:22.818Z,1.33
2023-02-27T07:29:49.604Z,1.38
2023-02-27T07:32:19.172Z,1.48
2023-02-27T07:34:46.244Z,1.50
2023-02-27T07:37:13.084Z,1.53
2023-02-27T07:39:39.941Z,1.65
2023-02-27T07:42:06.530Z,1.10
2023-02-27T07:44:34.151Z,1.45
2023-02-27T07:47:03.999Z,1.52
2023-02-27T07:49:30.733Z,1.53
2023-02-27T07:51:57.479Z,1.67
2023-02-27T07:54:24.583Z,1.98
2023-02-27T07:56:51.405Z,1.20
2023-02-27T07:59:18.353Z,1.30
2023-02-27T08:01:45.239Z,1.50
2023-02-27T08:04:11.955Z,1.48
2023-02-27T08:06:38.961Z,1.13
2023-02-27T08:09:06.108Z,1.10
2023-02-27T08:11:32.857Z,1.42
2023-02-27T08:14:01.264Z,1.40
2023-02-27T08:16:29.422Z,1.20
2023-02-27T08:18:56.840Z,1.60
2023-02-27T08:21:23.669Z,1.48
2023-02-27T08:24:16.027Z,1.50
2023-02-27T08:26:42.754Z,1.50
2023-02-27T08:29:09.431Z,0.95
2023-02-27T08:31:36.307Z,1.15
2023-02-27T08:34:10.185Z,1.10
2023-02-27T08:36:37.939Z,1.55
2023-02-27T08:39:06.399Z,1.37
2023-02-27T08:41:34.282Z,1.55
2023-02-27T08:44:01.426Z,2.45
2023-02-27T08:46:28.643Z,1.50
2023-02-27T08:48:55.643Z,0.95
2023-02-27T08:51:24.698Z,0.90
2023-02-27T08:53:51.673Z,0.98
2023-02-27T08:56:18.687Z,1.10
2023-02-27T08:58:45.468Z,1.10
2023-02-27T09:01:12.589Z,1.63
2023-02-27T09:03:39.342Z,1.13
2023-02-27T09:06:06.361Z,0.70
2023-02-27T09:08:33.139Z,1.10
2023-02-27T09:10:59.857Z,1.10
2023-02-27T09:13:29.480Z,1.20
2023-02-27T09:15:56.311Z,1.00
2023-02-27T09:18:23.241Z,0.77
2023-02-27T09:20:53.746Z,1.08
2023-02-27T09:23:20.438Z,0.73
2023-02-27T09:25:47.548Z,0.52
2023-02-27T09:28:14.222Z,0.90
2023-02-27T09:30:41.158Z,1.10
2023-02-27T09:33:07.967Z,0.63
2023-02-27T09:35:34.651Z,1.00
2023-02-27T09:38:01.333Z,0.88
2023-02-27T09:40:30.811Z,0.97
2023-02-27T09:43:02.956Z,0.77
2023-02-27T09:45:31.754Z,0.70
2023-02-27T09:48:06.570Z,1.02
2023-02-27T09:50:38.534Z,1.13
2023-02-27T09:53:13.525Z,1.07
2023-02-27T09:55:42.482Z,0.95
2023-02-27T09:58:37.979Z,0.82
2023-02-27T10:01:14.364Z,0.52
2023-02-27T10:03:42.165Z,1.25
2023-02-27T10:06:35.662Z,0.73
2023-02-27T10:09:06.566Z,0.75
2023-02-27T10:12:17.839Z,1.00
2023-02-27T10:15:06.016Z,0.68
2023-02-27T10:17:42.304Z,0.57
2023-02-27T10:20:20.116Z,0.90
2023-02-27T10:22:49.899Z,0.73
2023-02-27T10:25:30.787Z,0.70
2023-02-27T10:28:09.289Z,0.70
2023-02-27T10:30:36.773Z,0.60
2023-02-27T10:33:18.935Z,0.50
2023-02-27T10:35:48.134Z,0.60
2023-02-27T10:38:46.518Z,0.50
2023-02-27T10:41:16.450Z,0.30
2023-02-27T10:43:43.710Z,0.35
2023-02-27T10:46:26.673Z,1.00
2023-02-27T10:48:53.722Z,0.45
2023-02-27T10:51:22.512Z,0.60
2023-02-27T10:53:49.545Z,0.60
2023-02-27T10:56:24.153Z,0.60
2023-02-27T10:59:04.422Z,0.30
2023-02-27T11:01:53.234Z,0.45
2023-02-27T11:04:40.516Z,0.40
2023-02-27T11:07:11.473Z,0.50
2023-02-27T11:09:38.475Z,0.40
2023-02-27T11:12:11.266Z,0.20
2023-02-27T11:14:53.694Z,0.30
2023-02-27T11:17:36.837Z,0.30
2023-02-27T11:20:07.464Z,0.60
2023-02-27T11:22:34.171Z,0.20
2023-02-27T11:25:23.852Z,0.30
2023-02-27T11:27:52.432Z,2.22
2023-02-27T11:30:31.626Z,0.38
2023-02-27T11:33:01.608Z,0.50
2023-02-27T11:35:31.444Z,0.40
2023-02-27T11:38:04.696Z,0.47
2023-02-27T11:40:40.850Z,0.50
2023-02-27T11:43:21.121Z,0.40
2023-02-27T11:46:19.011Z,0.30
2023-02-27T11:48:48.785Z,0.30
2023-02-27T11:51:33.602Z,0.37
2023-02-27T11:54:13.398Z,0.20
2023-02-27T11:57:04.414Z,0.30
2023-02-27T11:59:40.386Z,0.20
2023-02-27T12:02:29.011Z,0.20
2023-02-27T12:05:06.460Z,0.40
2023-02-27T12:07:46.814Z,0.17
2023-02-27T12:10:21.180Z,0.40
2023-02-27T12:12:56.046Z,0.30
2023-02-27T12:15:41.423Z,0.30
2023-02-27T12:18:11.020Z,0.50
2023-02-27T12:20:46.027Z,0.30
2023-02-27T12:23:22.111Z,0.50
2023-02-27T12:25:53.974Z,0.35
2023-02-27T12:28:29.449Z,0.40
2023-02-27T12:31:37.573Z,0.37
2023-02-27T12:34:27.288Z,0.20
2023-02-27T12:36:54.962Z,0.63
2023-02-27T12:39:23.957Z,0.20
2023-02-27T12:42:16.978Z,0.60
2023-02-27T12:44:55.706Z,0.40
2023-02-27T12:47:58.231Z,0.30
2023-02-27T12:50:29.835Z,0.50
2023-02-27T12:53:19.709Z,0.60
2023-02-27T12:55:52.586Z,0.40
2023-02-27T12:58:57.127Z,0.33
2023-02-27T13:01:46.378Z,0.40
2023-02-27T13:05:10.353Z,0.40
2023-02-27T13:07:44.451Z,0.28
2023-02-27T13:10:31.483Z,0.40
2023-02-27T13:13:08.760Z,0.40
2023-02-27T13:16:00.688Z,0.35
2023-02-27T13:18:52.424Z,0.40
2023-02-27T13:21:43.762Z,0.28
2023-02-27T13:24:32.016Z,0.20
2023-02-27T13:27:01.773Z,0.40
2023-02-27T13:29:41.336Z,0.43
2023-02-27T13:32:32.759Z,0.40
2023-02-27T13:35:38.425Z,0.50
2023-02-27T13:38:46.608Z,0.40
2023-02-27T13:41:25.749Z,0.40
2023-02-27T13:44:04.239Z,0.32
2023-02-27T13:46:32.818Z,0.40
2023-02-27T13:49:05.868Z,0.50
2023-02-27T13:51:35.672Z,0.60
2023-02-27T13:54:15.024Z,0.30
2023-02-27T13:56:46.863Z,0.50
2023-02-27T13:59:30.785Z,0.30
2023-02-27T14:02:01.839Z,0.47
2023-02-27T14:04:35.901Z,0.57
2023-02-27T14:07:10.565Z,0.30
2023-02-27T14:09:41.409Z,0.40
2023-02-27T14:12:33.509Z,0.38
2023-02-27T14:15:18.517Z,0.45
2023-02-27T14:17:49.519Z,0.65
2023-02-27T14:20:27.387Z,0.50
2023-02-27T14:23:25.979Z,0.40
2023-02-27T14:26:11.699Z,0.40
2023-02-27T14:29:04.688Z,0.50
2023-02-27T14:31:35.191Z,0.47
2023-02-27T14:34:05.958Z,0.50
2023-02-27T14:36:37.885Z,0.40
2023-02-27T14:39:04.486Z,0.45
2023-02-27T14:41:50.153Z,0.40
2023-02-27T14:44:25.069Z,0.40
2023-02-27T14:46:54.741Z,0.60
2023-02-27T14:49:27.516Z,0.40
2023-02-27T14:51:54.841Z,0.30
2023-02-27T14:54:24.647Z,0.35
2023-02-27T14:56:54.364Z,0.68
2023-02-27T14:59:25.506Z,0.40
2023-02-27T15:01:54.947Z,0.40
2023-02-27T15:04:26.047Z,0.43
2023-02-27T15:06:55.468Z,0.38
2023-02-27T15:09:25.751Z,0.60
2023-02-27T15:12:03.478Z,0.40
2023-02-27T15:14:36.013Z,0.30
2023-02-27T15:17:03.039Z,0.40
2023-02-27T15:19:32.688Z,0.40
2023-02-27T15:22:04.739Z,0.30
2023-02-27T15:24:49.418Z,0.53
2023-02-27T15:27:21.022Z,0.30
2023-02-27T15:29:54.166Z,0.40
2023-02-27T15:32:29.098Z,0.25
2023-02-27T15:35:17.560Z,0.43
2023-02-27T15:37:56.080Z,0.33
2023-02-27T15:40:27.255Z,0.40
2023-02-27T15:42:58.802Z,0.40
2023-02-27T15:45:35.755Z,0.30
2023-02-27T15:48:03.535Z,0.30
2023-02-27T15:50:37.248Z,0.53
2023-02-27T15:53:19.793Z,0.30
2023-02-27T15:55:58.399Z,0.50
2023-02-27T15:58:28.391Z,0.45
2023-02-27T16:01:20.036Z,0.45
2023-02-27T16:03:49.606Z,0.30
2023-02-27T16:06:20.011Z,0.30
2023-02-27T16:08:52.906Z,0.38
2023-02-27T16:11:25.512Z,0.30
2023-02-27T16:13:53.255Z,0.60
2023-02-27T16:16:19.782Z,0.40
2023-02-27T16:18:49.580Z,0.40
2023-02-27T16:21:19.823Z,0.35
2023-02-27T16:23:47.126Z,0.20
2023-02-27T16:26:23.046Z,0.20
2023-02-27T16:29:21.739Z,0.40
2023-02-27T16:31:52.488Z,0.40
2023-02-27T16:34:45.473Z,0.30
2023-02-27T16:37:27.448Z,0.30
2023-02-27T16:40:03.883Z,0.93
2023-02-27T16:42:31.863Z,0.60
2023-02-27T16:44:58.605Z,0.50
2023-02-27T16:47:25.728Z,0.43
2023-02-27T16:49:52.526Z,0.20
2023-02-27T16:52:22.672Z,0.30
2023-02-27T16:54:49.696Z,0.30
2023-02-27T16:57:18.909Z,0.40
2023-02-27T16:59:45.630Z,0.40
2023-02-27T17:02:14.892Z,0.40
2023-02-27T17:04:46.916Z,0.50
2023-02-27T17:07:19.288Z,0.60
2023-02-27T17:09:47.168Z,0.52
2023-02-27T17:12:14.301Z,0.95
2023-02-27T17:14:43.855Z,0.60
2023-02-27T17:17:11.555Z,0.90
2023-02-27T17:19:38.902Z,0.60
2023-02-27T17:22:05.700Z,0.60
2023-02-27T17:24:34.179Z,0.60
2023-02-27T17:27:02.226Z,0.60
2023-02-27T17:29:34.381Z,0.77
2023-02-27T17:32:05.689Z,0.60
2023-02-27T17:34:32.644Z,0.50
2023-02-27T17:36:59.579Z,0.80
2023-02-27T17:39:30.880Z,0.30
2023-02-27T17:41:57.455Z,0.50
2023-02-27T17:44:24.313Z,0.70
2023-02-27T17:46:50.954Z,1.02
2023-02-27T17:49:17.772Z,0.60
2023-02-27T17:51:44.771Z,0.90
2023-02-27T17:54:11.430Z,1.25
2023-02-27T17:56:38.474Z,0.83
2023-02-27T17:59:05.526Z,0.47
2023-02-27T18:01:33.040Z,0.60
2023-02-27T18:04:00.046Z,0.57
2023-02-27T18:06:27.072Z,0.73
2023-02-27T18:08:54.752Z,0.70
2023-02-27T18:11:22.085Z,0.80
2023-02-27T18:13:55.018Z,0.95
2023-02-27T18:16:22.493Z,1.40
2023-02-27T18:18:49.561Z,1.52
2023-02-27T18:21:22.726Z,1.80
2023-02-27T18:23:51.649Z,3.50
2023-02-27T18:26:32.635Z,4.20
2023-02-27T18:29:07.049Z,2.33
2023-02-27T18:31:40.982Z,2.00
2023-02-27T18:34:08.139Z,1.83
2023-02-27T18:36:36.093Z,1.38
2023-02-27T18:39:05.164Z,2.20
2023-02-27T18:41:35.305Z,2.10
2023-02-27T18:44:02.920Z,2.00
2023-02-27T18:46:31.014Z,1.83
2023-02-27T18:48:59.056Z,2.40
2023-02-27T18:51:25.872Z,1.80
2023-02-27T18:53:52.893Z,1.70
2023-02-27T18:56:22.902Z,2.65
2023-02-27T18:58:51.203Z,2.50
2023-02-27T19:01:24.726Z,2.25
2023-02-27T19:03:54.015Z,2.85
2023-02-27T19:06:20.799Z,1.80
2023-02-27T19:08:47.898Z,1.75
2023-02-27T19:11:35.900Z,1.60
2023-02-27T19:14:04.553Z,1.30
2023-02-27T19:16:32.185Z,1.58
2023-02-27T19:19:05.297Z,1.20
2023-02-27T19:21:38.871Z,1.10
2023-02-27T19:24:09.006Z,1.50
2023-02-27T19:26:36.014Z,2.10
2023-02-27T19:29:10.163Z,1.85
2023-02-27T19:31:36.958Z,1.70
2023-02-27T19:34:03.654Z,1.40
2023-02-27T19:36:31.428Z,1.30
2023-02-27T19:39:01.629Z,1.60
2023-02-27T19:41:33.414Z,2.10
2023-02-27T19:44:02.805Z,1.50
2023-02-27T19:46:33.793Z,1.88
2023-02-27T19:49:05.651Z,2.33
2023-02-27T19:51:32.782Z,1.83
2023-02-27T19:54:01.504Z,2.20
2023-02-27T19:56:29.452Z,1.70
2023-02-27T19:58:57.821Z,2.10
2023-02-27T20:01:35.398Z,1.70
2023-02-27T20:04:03.567Z,2.00
2023-02-27T20:06:33.466Z,2.08
2023-02-27T20:09:00.496Z,1.70
2023-02-27T20:11:32.637Z,1.83
2023-02-27T20:13:59.828Z,1.90
2023-02-27T20:16:28.952Z,1.98
2023-02-27T20:18:56.744Z,1.55
2023-02-27T20:21:25.166Z,1.98
2023-02-27T20:24:00.363Z,2.03
2023-02-27T20:26:33.695Z,1.83
2023-02-27T20:29:04.549Z,1.55
2023-02-27T20:31:34.004Z,1.80
2023-02-27T20:34:08.293Z,1.40
2023-02-27T20:36:35.654Z,1.50
2023-02-27T20:39:03.136Z,1.40
2023-02-27T20:41:30.078Z,1.40
2023-02-27T20:43:57.550Z,1.60
2023-02-27T20:46:28.537Z,1.50
2023-02-27T20:49:00.180Z,1.48
2023-02-27T20:51:30.398Z,1.40
2023-02-27T20:53:59.919Z,1.65
2023-02-27T20:56:30.323Z,1.67
2023-02-27T20:58:57.985Z,1.90
2023-02-27T21:01:24.833Z,1.67
2023-02-27T21:03:51.845Z,1.70
2023-02-27T21:06:18.790Z,1.55
2023-02-27T21:08:48.660Z,1.50
2023-02-27T21:11:18.563Z,1.45
2023-02-27T21:13:46.961Z,1.40
2023-02-27T21:16:17.405Z,1.63
2023-02-27T21:18:45.310Z,1.50
2023-02-27T21:21:15.668Z,1.67
2023-02-27T21:23:43.411Z,0.98
2023-02-27T21:26:14.270Z,1.42
2023-02-27T21:28:46.892Z,1.60
2023-02-27T21:31:15.671Z,1.52
2023-02-27T21:33:43.141Z,2.08
2023-02-27T21:36:10.598Z,1.50
2023-02-27T21:38:38.121Z,1.45
2023-02-27T21:41:11.680Z,1.37
2023-02-27T21:43:40.611Z,1.77
2023-02-27T21:46:09.933Z,1.63
2023-02-27T21:48:37.210Z,2.00
2023-02-27T21:51:04.991Z,1.80
2023-02-27T21:53:32.439Z,1.40
2023-02-27T21:56:06.820Z,2.13
2023-02-27T21:58:36.470Z,2.17
2023-02-27T22:01:16.475Z,2.05
2023-02-27T22:03:45.124Z,2.20
2023-02-27T22:06:17.522Z,2.07
2023-02-27T22:08:49.376Z,1.92
2023-02-27T22:11:23.251Z,1.90
2023-02-27T22:13:52.636Z,2.10
2023-02-27T22:16:21.672Z,2.70
2023-02-27T22:18:49.611Z,2.37
2023-02-27T22:21:20.120Z,3.45
2023-02-27T22:23:47.575Z,2.58
2023-02-27T22:26:20.905Z,3.05
2023-02-27T22:28:51.872Z,3.45
2023-02-27T22:31:23.810Z,3.00
2023-02-27T22:33:54.822Z,2.90
2023-02-27T22:36:24.068Z,3.15
2023-02-27T22:38:51.849Z,2.63
2023-02-27T22:41:27.063Z,3.58
2023-02-27T22:43:54.499Z,3.37
2023-02-27T22:46:44.503Z,2.50
2023-02-27T22:49:20.016Z,3.17
2023-02-27T22:51:53.113Z,2.75
2023-02-27T22:54:28.655Z,2.47
2023-02-27T22:57:03.835Z,2.90
2023-02-27T22:59:35.093Z,2.60
2023-02-27T23:02:03.648Z,2.17
2023-02-27T23:04:40.452Z,2.20
2023-02-27T23:09:56.487Z,2.73
2023-02-27T23:12:27.488Z,2.85
2023-02-27T23:14:54.437Z,2.63
2023-02-27T23:17:21.415Z,2.30
2023-02-27T23:19:48.119Z,2.53
2023-02-27T23:22:14.821Z,2.37
2023-02-27T23:24:42.002Z,2.38
2023-02-27T23:27:25.503Z,2.33
2023-02-27T23:29:53.201Z,2.53
2023-02-27T23:32:20.077Z,2.20
2023-02-27T23:34:49.698Z,1.90
2023-02-27T23:37:16.702Z,2.50
2023-02-27T23:39:43.358Z,2.53
2023-02-27T23:42:10.220Z,2.30
2023-02-27T23:44:55.340Z,2.00
2023-02-27T23:47:40.732Z,2.27
2023-02-27T23:50:08.358Z,2.10
2023-02-27T23:52:34.955Z,2.20
2023-02-27T23:55:01.641Z,3.40
2023-02-27T23:57:28.314Z,2.47
2023-02-27T23:59:54.964Z,2.47
